createdAt,value
2023-02-11T00:02:42.228Z,68.88
2023-02-11T00:05:48.245Z,69.31
2023-02-11T00:08:55.228Z,69.69
2023-02-11T00:12:03.795Z,68.53
2023-02-11T00:15:13.130Z,66.38
2023-02-11T00:18:19.618Z,66.60
2023-02-11T00:21:28.955Z,67.12
2023-02-11T00:24:34.934Z,70.68
2023-02-11T00:27:44.363Z,69.84
2023-02-11T00:30:58.321Z,69.46
2023-02-11T00:34:05.010Z,71.07
2023-02-11T00:37:12.230Z,71.00
2023-02-11T00:40:21.926Z,70.74
2023-02-11T00:43:30.695Z,70.32
2023-02-11T00:46:37.997Z,70.25
2023-02-11T00:49:43.903Z,70.10
2023-02-11T00:52:50.725Z,69.69
2023-02-11T00:55:56.770Z,69.20
2023-02-11T00:59:08.242Z,67.89
2023-02-11T01:02:14.063Z,67.77
2023-02-11T01:05:23.904Z,66.68
2023-02-11T01:08:30.129Z,67.61
2023-02-11T01:11:36.915Z,65.19
2023-02-11T01:14:46.347Z,65.38
2023-02-11T01:17:53.238Z,65.03
2023-02-11T01:20:59.173Z,64.81
2023-02-11T01:24:05.807Z,64.65
2023-02-11T01:27:11.794Z,63.01
2023-02-11T01:30:23.206Z,63.98
2023-02-11T01:33:29.106Z,62.83
2023-02-11T01:36:35.760Z,63.95
2023-02-11T01:39:41.658Z,63.34
2023-02-11T01:42:50.919Z,63.38
2023-02-11T01:46:11.215Z,65.13
2023-02-11T01:49:24.512Z,65.68
2023-02-11T01:52:37.916Z,65.23
2023-02-11T01:55:57.141Z,64.82
2023-02-11T01:59:14.744Z,64.28
2023-02-11T02:02:32.801Z,64.55
2023-02-11T02:05:52.183Z,61.70
2023-02-11T02:09:08.902Z,60.82
2023-02-11T02:12:14.961Z,60.54
2023-02-11T02:15:27.502Z,58.82
2023-02-11T02:18:51.728Z,57.38
2023-02-11T02:23:05.308Z,56.77
2023-02-11T02:26:49.792Z,56.90
2023-02-11T02:30:36.879Z,55.82
2023-02-11T02:33:58.542Z,55.83
2023-02-11T02:37:18.222Z,55.28
2023-02-11T02:40:34.442Z,59.05
2023-02-11T02:43:47.703Z,64.11
2023-02-11T02:46:53.515Z,66.32
2023-02-11T02:50:03.588Z,64.75
2023-02-11T02:53:35.243Z,60.97
2023-02-11T02:56:54.337Z,57.60
2023-02-11T03:00:20.845Z,56.47
2023-02-11T03:03:45.244Z,57.14
2023-02-11T03:07:06.881Z,56.66
2023-02-11T03:10:24.520Z,55.54
2023-02-11T03:13:37.444Z,57.11
2023-02-11T03:16:46.701Z,59.19
2023-02-11T03:19:55.107Z,59.84
2023-02-11T03:23:13.952Z,61.88
2023-02-11T03:26:28.949Z,62.30
2023-02-11T03:29:46.691Z,61.76
2023-02-11T03:33:00.983Z,62.23
2023-02-11T03:36:16.064Z,60.00
2023-02-11T03:39:32.567Z,60.67
2023-02-11T03:42:46.889Z,59.31
2023-02-11T03:45:58.764Z,58.24
2023-02-11T03:49:12.648Z,57.37
2023-02-11T03:52:23.062Z,58.08
2023-02-11T03:55:39.031Z,56.24
2023-02-11T03:58:47.073Z,56.03
2023-02-11T04:01:54.268Z,55.90
2023-02-11T04:05:00.543Z,55.04
2023-02-11T04:08:08.765Z,55.98
2023-02-11T04:11:17.182Z,54.02
2023-02-11T04:14:26.921Z,53.43
2023-02-11T04:17:32.946Z,52.24
2023-02-11T04:20:39.592Z,53.38
2023-02-11T04:23:45.386Z,52.56
2023-02-11T04:26:54.820Z,51.28
2023-02-11T04:30:00.617Z,50.49
2023-02-11T04:33:07.414Z,50.06
2023-02-11T04:36:13.255Z,48.60
2023-02-11T04:39:20.415Z,48.17
2023-02-11T04:42:28.925Z,47.81
2023-02-11T04:45:36.323Z,47.66
2023-02-11T04:48:42.195Z,45.49
2023-02-11T04:51:49.655Z,46.21
2023-02-11T04:54:55.522Z,45.60
2023-02-11T04:58:04.780Z,43.82
2023-02-11T05:01:11.288Z,44.39
2023-02-11T05:04:17.949Z,43.30
2023-02-11T05:07:23.766Z,42.01
2023-02-11T05:10:30.316Z,40.77
2023-02-11T05:13:38.775Z,41.51
2023-02-11T05:16:45.506Z,41.02
2023-02-11T05:19:51.245Z,40.87
2023-02-11T05:22:57.799Z,41.09
2023-02-11T05:26:03.772Z,41.54
2023-02-11T05:29:12.952Z,40.79
2023-02-11T05:32:18.809Z,41.16
2023-02-11T05:35:26.368Z,40.77
2023-02-11T05:38:32.521Z,40.59
2023-02-11T05:41:39.162Z,39.26
2023-02-11T05:44:50.257Z,40.01
2023-02-11T05:47:57.240Z,41.27
2023-02-11T05:51:02.971Z,40.96
2023-02-11T05:54:09.822Z,40.50
2023-02-11T05:57:15.868Z,40.69
2023-02-11T06:00:25.719Z,39.46
2023-02-11T06:03:31.555Z,38.01
2023-02-11T06:06:38.414Z,38.99
2023-02-11T06:09:44.369Z,39.69
2023-02-11T06:12:51.057Z,39.83
2023-02-11T06:16:06.046Z,38.43
2023-02-11T06:19:12.716Z,39.29
2023-02-11T06:22:18.736Z,39.24
2023-02-11T06:25:25.357Z,39.05
2023-02-11T06:28:32.281Z,38.77
2023-02-11T06:31:42.119Z,37.61
2023-02-11T06:34:48.203Z,38.17
2023-02-11T06:37:54.884Z,38.02
2023-02-11T06:41:00.711Z,37.72
2023-02-11T06:44:07.546Z,37.62
2023-02-11T06:47:16.840Z,39.28
2023-02-11T06:50:23.730Z,39.72
2023-02-11T06:53:29.550Z,43.49
2023-02-11T06:56:37.558Z,42.46
2023-02-11T06:59:43.971Z,41.38
2023-02-11T07:02:53.216Z,41.48
2023-02-11T07:05:58.983Z,40.75
2023-02-11T07:09:05.629Z,41.99
2023-02-11T07:12:13.476Z,41.74
2023-02-11T07:15:20.369Z,41.21
2023-02-11T07:18:28.690Z,42.09
2023-02-11T07:21:35.295Z,41.42
2023-02-11T07:24:41.036Z,41.97
2023-02-11T07:27:50.287Z,42.29
2023-02-11T07:30:56.028Z,43.00
2023-02-11T07:34:07.032Z,42.37
2023-02-11T07:37:12.910Z,42.58
2023-02-11T07:40:19.870Z,41.99
2023-02-11T07:43:25.680Z,43.39
2023-02-11T07:46:32.548Z,42.88
2023-02-11T07:49:41.103Z,42.45
2023-02-11T07:52:47.710Z,42.07
2023-02-11T07:55:53.648Z,44.30
2023-02-11T07:59:05.166Z,44.61
2023-02-11T08:02:12.743Z,44.33
2023-02-11T08:05:22.134Z,44.60
2023-02-11T08:08:30.413Z,44.64
2023-02-11T08:11:39.343Z,44.08
2023-02-11T08:14:45.100Z,44.27
2023-02-11T08:17:51.616Z,43.95
2023-02-11T08:21:08.273Z,43.79
2023-02-11T08:24:15.575Z,57.54
2023-02-11T08:27:21.455Z,81.95
2023-02-11T08:30:28.243Z,72.93
2023-02-11T08:33:34.120Z,103.37
2023-02-11T08:36:45.777Z,61.59
2023-02-11T08:39:51.731Z,50.66
2023-02-11T08:42:59.592Z,114.83
2023-02-11T08:46:06.837Z,54.82
2023-02-11T08:49:14.624Z,59.96
2023-02-11T08:52:23.077Z,48.80
2023-02-11T08:55:29.854Z,48.17
2023-02-11T08:58:38.030Z,58.00
2023-02-11T09:01:44.958Z,53.83
2023-02-11T09:04:53.516Z,49.69
2023-02-11T09:08:06.042Z,48.11
2023-02-11T09:11:13.357Z,47.97
2023-02-11T09:14:27.187Z,49.58
2023-02-11T09:17:33.076Z,47.92
2023-02-11T09:20:39.936Z,46.80
2023-02-11T09:23:48.662Z,46.26
2023-02-11T09:26:55.438Z,48.17
2023-02-11T09:30:01.318Z,48.79
2023-02-11T09:33:08.100Z,48.61
2023-02-11T09:36:13.892Z,46.85
2023-02-11T09:39:23.517Z,46.76
2023-02-11T09:42:49.918Z,47.13
2023-02-11T09:45:59.800Z,43.66
2023-02-11T09:49:09.387Z,48.09
2023-02-11T09:52:38.761Z,47.64
2023-02-11T09:55:55.937Z,45.61
2023-02-11T09:59:05.257Z,44.95
2023-02-11T10:02:26.919Z,45.19
2023-02-11T10:06:06.715Z,45.92
2023-02-11T10:09:48.526Z,55.44
2023-02-11T10:13:27.748Z,51.90
2023-02-11T10:16:54.404Z,57.39
2023-02-11T10:20:24.908Z,46.09
2023-02-11T10:23:42.989Z,50.70
2023-02-11T10:26:50.218Z,46.31
2023-02-11T10:30:07.144Z,45.80
2023-02-11T10:33:29.799Z,47.26
2023-02-11T10:36:40.285Z,46.54
2023-02-11T10:39:47.173Z,45.25
2023-02-11T10:42:56.187Z,45.42
2023-02-11T10:46:09.176Z,45.98
2023-02-11T10:49:40.826Z,44.65
2023-02-11T10:52:47.367Z,46.10
2023-02-11T10:55:58.176Z,47.87
2023-02-11T10:59:10.552Z,50.59
2023-02-11T11:02:42.074Z,49.01
2023-02-11T11:05:58.726Z,45.94
2023-02-11T11:09:33.053Z,45.63
2023-02-11T11:12:51.644Z,49.13
2023-02-11T11:16:25.029Z,44.94
2023-02-11T11:19:36.873Z,50.64
2023-02-11T11:22:45.716Z,58.51
2023-02-11T11:26:08.420Z,49.86
2023-02-11T11:29:23.497Z,47.80
2023-02-11T11:32:37.290Z,49.09
2023-02-11T11:36:04.237Z,49.24
2023-02-11T11:39:26.414Z,47.50
2023-02-11T11:42:35.094Z,48.65
2023-02-11T11:45:42.790Z,46.50
2023-02-11T11:48:54.752Z,48.25
2023-02-11T11:52:30.628Z,47.43
2023-02-11T11:55:46.801Z,50.07
2023-02-11T11:58:54.574Z,48.24
2023-02-11T12:03:20.612Z,50.22
2023-02-11T12:06:59.575Z,48.34
2023-02-11T12:10:47.208Z,50.27
2023-02-11T12:14:18.916Z,48.88
2023-02-11T12:17:51.931Z,49.57
2023-02-11T12:21:29.580Z,49.86
2023-02-11T12:25:07.876Z,52.41
2023-02-11T12:28:40.282Z,51.00
2023-02-11T12:32:08.286Z,50.50
2023-02-11T12:35:43.586Z,51.73
2023-02-11T12:39:17.621Z,53.75
2023-02-11T12:43:19.989Z,52.76
2023-02-11T12:46:45.188Z,52.34
2023-02-11T12:50:14.228Z,50.88
2023-02-11T12:54:07.467Z,55.19
2023-02-11T12:57:26.160Z,52.91
2023-02-11T13:00:48.942Z,53.13
2023-02-11T13:04:12.055Z,54.34
2023-02-11T13:07:27.026Z,54.71
2023-02-11T13:10:41.150Z,58.86
2023-02-11T13:13:58.940Z,53.73
2023-02-11T13:17:20.921Z,58.31
2023-02-11T13:20:45.744Z,52.46
2023-02-11T13:24:07.571Z,52.29
2023-02-11T13:27:32.460Z,51.33
2023-02-11T13:30:47.713Z,51.63
2023-02-11T13:33:53.828Z,50.23
2023-02-11T13:37:03.241Z,49.28
2023-02-11T13:40:25.881Z,51.35
2023-02-11T13:43:37.392Z,52.32
2023-02-11T13:47:02.280Z,52.13
2023-02-11T13:50:24.925Z,50.65
2023-02-11T13:53:53.415Z,49.40
2023-02-11T13:57:42.819Z,50.64
2023-02-11T14:00:53.005Z,52.95
2023-02-11T14:04:39.453Z,54.20
2023-02-11T14:08:30.186Z,51.59
2023-02-11T14:11:58.384Z,53.94
2023-02-11T14:15:41.548Z,57.39
2023-02-11T14:19:06.469Z,55.89
2023-02-11T14:22:23.862Z,57.15
2023-02-11T14:25:32.277Z,53.80
2023-02-11T14:28:47.067Z,52.66
2023-02-11T14:32:11.015Z,51.83
2023-02-11T14:35:35.416Z,52.34
2023-02-11T14:39:15.332Z,50.85
2023-02-11T14:42:31.243Z,61.23
2023-02-11T14:45:51.451Z,53.21
2023-02-11T14:49:04.997Z,56.88
2023-02-11T14:52:30.529Z,63.22
2023-02-11T14:55:43.063Z,59.74
2023-02-11T14:58:52.253Z,61.20
2023-02-11T15:02:01.286Z,59.85
2023-02-11T15:05:21.364Z,60.68
2023-02-11T15:08:27.898Z,65.97
2023-02-11T15:11:41.652Z,60.22
2023-02-11T15:14:55.396Z,58.07
2023-02-11T15:18:09.913Z,57.38
2023-02-11T15:21:16.553Z,62.45
2023-02-11T15:24:31.292Z,71.47
2023-02-11T15:27:44.398Z,63.27
2023-02-11T15:30:59.843Z,59.95
2023-02-11T15:34:14.979Z,61.45
2023-02-11T15:37:26.997Z,68.34
2023-02-11T15:40:36.214Z,65.11
2023-02-11T15:43:49.356Z,61.54
2023-02-11T15:46:55.533Z,74.42
2023-02-11T15:50:06.089Z,60.34
2023-02-11T15:53:28.870Z,66.00
2023-02-11T15:56:45.380Z,67.69
2023-02-11T15:59:56.949Z,69.24
2023-02-11T16:03:03.610Z,67.93
2023-02-11T16:06:25.145Z,65.76
2023-02-11T16:09:40.080Z,68.56
2023-02-11T16:13:14.193Z,71.41
2023-02-11T16:16:27.285Z,79.51
2023-02-11T16:19:36.315Z,73.02
2023-02-11T16:22:50.511Z,74.28
2023-02-11T16:26:05.721Z,71.95
2023-02-11T16:29:20.331Z,67.95
2023-02-11T16:32:28.919Z,72.65
2023-02-11T16:35:35.916Z,71.82
2023-02-11T16:38:44.449Z,69.75
2023-02-11T16:41:52.767Z,66.49
2023-02-11T16:45:00.223Z,65.26
2023-02-11T16:48:10.691Z,68.94
2023-02-11T16:51:16.808Z,69.28
2023-02-11T16:54:27.074Z,71.29
2023-02-11T16:57:33.965Z,71.07
2023-02-11T17:00:41.260Z,70.33
2023-02-11T17:03:47.266Z,66.64
2023-02-11T17:06:55.933Z,64.69
2023-02-11T17:10:05.928Z,64.79
2023-02-11T17:13:12.489Z,69.76
2023-02-11T17:16:26.557Z,69.99
2023-02-11T17:19:33.664Z,70.01
2023-02-11T17:22:39.743Z,69.09
2023-02-11T17:25:49.441Z,67.68
2023-02-11T17:28:56.306Z,67.42
2023-02-11T17:32:03.246Z,68.61
2023-02-11T17:35:10.700Z,67.89
2023-02-11T17:38:17.507Z,71.85
2023-02-11T17:41:26.073Z,74.35
2023-02-11T17:44:32.575Z,74.48
2023-02-11T17:47:38.928Z,75.62
2023-02-11T17:50:45.765Z,73.58
2023-02-11T17:53:51.893Z,72.08
2023-02-11T17:57:01.297Z,74.00
2023-02-11T18:00:09.013Z,75.60
2023-02-11T18:03:21.621Z,78.65
2023-02-11T18:06:29.949Z,73.91
2023-02-11T18:09:40.976Z,70.68
2023-02-11T18:12:49.643Z,71.04
2023-02-11T18:15:56.407Z,69.64
2023-02-11T18:19:02.567Z,72.84
2023-02-11T18:22:10.033Z,93.30
2023-02-11T18:25:19.093Z,104.98
2023-02-11T18:28:28.429Z,85.49
2023-02-11T18:31:35.521Z,79.65
2023-02-11T18:34:43.481Z,82.04
2023-02-11T18:37:49.934Z,73.88
2023-02-11T18:41:00.327Z,80.06
2023-02-11T18:44:08.963Z,100.02
2023-02-11T18:47:15.757Z,74.72
2023-02-11T18:50:24.750Z,69.96
2023-02-11T18:53:31.563Z,107.34
2023-02-11T18:56:46.977Z,128.69
2023-02-11T18:59:59.163Z,100.07
2023-02-11T19:03:06.166Z,113.58
2023-02-11T19:06:20.316Z,93.71
2023-02-11T19:09:28.396Z,83.97
2023-02-11T19:12:35.838Z,70.85
2023-02-11T19:15:48.729Z,76.42
2023-02-11T19:18:55.494Z,74.40
2023-02-11T19:22:09.185Z,68.31
2023-02-11T19:25:17.417Z,69.16
2023-02-11T19:28:26.328Z,81.69
2023-02-11T19:31:36.649Z,71.35
2023-02-11T19:34:44.105Z,62.89
2023-02-11T19:37:50.802Z,64.07
2023-02-11T19:40:59.816Z,59.25
2023-02-11T19:44:08.619Z,59.49
2023-02-11T19:47:18.241Z,59.02
2023-02-11T19:50:25.317Z,58.11
2023-02-11T19:53:31.393Z,57.28
2023-02-11T19:56:40.396Z,60.01
2023-02-11T19:59:46.334Z,60.48
2023-02-11T20:02:55.953Z,59.49
2023-02-11T20:06:02.025Z,63.10
2023-02-11T20:09:12.353Z,60.20
2023-02-11T20:12:25.755Z,62.98
2023-02-11T20:15:32.443Z,64.71
2023-02-11T20:18:41.501Z,74.20
2023-02-11T20:21:56.231Z,75.22
2023-02-11T20:25:02.195Z,74.12
2023-02-11T20:28:08.801Z,84.51
2023-02-11T20:31:17.326Z,87.27
2023-02-11T20:34:26.869Z,116.12
2023-02-11T20:37:33.164Z,115.56
2023-02-11T20:40:39.965Z,222.95
2023-02-11T20:43:49.673Z,158.34
2023-02-11T20:46:57.384Z,198.13
2023-02-11T20:50:05.981Z,140.94
2023-02-11T20:53:15.623Z,129.62
2023-02-11T20:56:26.242Z,133.96
2023-02-11T20:59:33.470Z,117.29
2023-02-11T21:02:39.540Z,158.35
2023-02-11T21:05:51.833Z,144.32
2023-02-11T21:09:00.771Z,137.20
2023-02-11T21:12:08.945Z,122.12
2023-02-11T21:15:16.997Z,98.67
2023-02-11T21:18:23.904Z,95.74
2023-02-11T21:21:33.526Z,93.52
2023-02-11T21:24:40.242Z,72.30
2023-02-11T21:27:46.263Z,65.87
2023-02-11T21:30:54.773Z,51.76
2023-02-11T21:34:02.361Z,55.16
2023-02-11T21:37:11.929Z,49.37
2023-02-11T21:40:17.779Z,43.97
2023-02-11T21:43:25.788Z,39.22
2023-02-11T21:46:32.459Z,37.37
2023-02-11T21:49:42.298Z,39.23
2023-02-11T21:52:51.142Z,34.03
2023-02-11T21:56:07.300Z,35.02
2023-02-11T21:59:17.988Z,33.76
2023-02-11T22:02:24.539Z,31.44
2023-02-11T22:05:30.736Z,33.67
2023-02-11T22:08:40.808Z,35.72
2023-02-11T22:11:46.937Z,45.58
2023-02-11T22:14:55.757Z,44.95
2023-02-11T22:18:01.557Z,40.74
2023-02-11T22:21:12.836Z,38.79
2023-02-11T22:24:21.353Z,36.50
2023-02-11T22:27:29.230Z,35.23
2023-02-11T22:30:35.145Z,35.24
2023-02-11T22:33:41.997Z,33.91
2023-02-11T22:36:49.592Z,74.81
2023-02-11T22:39:59.137Z,46.28
2023-02-11T22:43:05.061Z,38.63
2023-02-11T22:46:12.630Z,40.20
2023-02-11T22:49:21.246Z,37.03
2023-02-11T22:52:28.527Z,35.79
2023-02-11T22:55:41.253Z,35.79
2023-02-11T22:58:48.029Z,36.56
2023-02-11T23:01:55.947Z,38.28
2023-02-11T23:05:03.768Z,33.69
2023-02-11T23:08:10.761Z,32.45
2023-02-11T23:11:23.985Z,33.71
2023-02-11T23:14:30.136Z,39.06
2023-02-11T23:17:37.075Z,36.22
2023-02-11T23:20:46.687Z,35.60
2023-02-11T23:24:01.445Z,34.50
2023-02-11T23:27:13.291Z,29.70
2023-02-11T23:30:22.054Z,26.63
2023-02-11T23:33:27.838Z,26.64
2023-02-11T23:36:35.025Z,26.87
2023-02-11T23:39:41.137Z,29.19
2023-02-11T23:42:52.507Z,27.51
2023-02-11T23:45:58.468Z,32.92
2023-02-11T23:49:05.412Z,34.12
2023-02-11T23:52:11.416Z,29.02
2023-02-11T23:55:18.234Z,32.22
2023-02-11T23:58:27.029Z,35.51
